createdAt,value
2022-08-17T00:00:43.244Z,8.40
2022-08-17T00:03:17.559Z,9.23
2022-08-17T00:05:52.051Z,6.80
2022-08-17T00:08:24.497Z,7.90
2022-08-17T00:10:55.465Z,7.20
2022-08-17T00:13:30.790Z,8.33
2022-08-17T00:16:11.358Z,7.30
2022-08-17T00:19:01.222Z,7.33
2022-08-17T00:22:28.667Z,8.20
2022-08-17T00:24:21.321Z,8.60
2022-08-17T00:26:50.789Z,8.70
2022-08-17T00:29:20.331Z,7.83
2022-08-17T00:31:51.110Z,7.40
2022-08-17T00:34:20.268Z,7.80
2022-08-17T00:36:49.822Z,7.80
2022-08-17T00:39:18.979Z,8.37
2022-08-17T00:41:48.040Z,7.70
2022-08-17T00:44:16.976Z,7.53
2022-08-17T00:46:47.983Z,7.70
2022-08-17T00:49:23.723Z,7.53
2022-08-17T00:51:59.558Z,6.73
2022-08-17T00:54:32.712Z,8.53
2022-08-17T00:57:14.169Z,8.13
2022-08-17T01:00:01.711Z,7.90
2022-08-17T01:02:42.948Z,7.70
2022-08-17T01:05:18.849Z,7.40
2022-08-17T01:07:51.024Z,7.50
2022-08-17T01:10:58.730Z,7.17
2022-08-17T01:13:14.295Z,7.33
2022-08-17T01:15:50.387Z,7.63
2022-08-17T01:18:19.582Z,7.13
2022-08-17T01:20:53.751Z,7.60
2022-08-17T01:23:27.697Z,8.37
2022-08-17T01:26:01.893Z,10.73
2022-08-17T01:28:54.437Z,7.67
2022-08-17T01:31:27.373Z,7.67
2022-08-17T01:33:56.794Z,8.43
2022-08-17T01:36:25.635Z,7.53
2022-08-17T01:38:55.829Z,8.00
2022-08-17T01:41:26.293Z,8.50
2022-08-17T01:44:01.679Z,7.90
2022-08-17T01:46:34.804Z,7.27
2022-08-17T01:49:09.560Z,8.03
2022-08-17T01:51:39.209Z,8.87
2022-08-17T01:54:14.409Z,9.50
2022-08-17T01:56:48.206Z,9.17
2022-08-17T01:59:18.912Z,8.40
2022-08-17T02:01:49.068Z,8.40
2022-08-17T02:04:18.204Z,7.80
2022-08-17T02:06:53.112Z,8.47
2022-08-17T02:09:27.182Z,8.17
2022-08-17T02:12:37.331Z,8.90
2022-08-17T02:14:53.771Z,8.23
2022-08-17T02:17:23.127Z,9.20
2022-08-17T02:19:52.520Z,7.90
2022-08-17T02:22:21.533Z,8.47
2022-08-17T02:24:59.410Z,9.27
2022-08-17T02:27:31.333Z,9.27
2022-08-17T02:30:01.012Z,9.50
2022-08-17T02:32:30.056Z,8.80
2022-08-17T02:35:00.442Z,9.80
2022-08-17T02:37:30.982Z,8.90
2022-08-17T02:40:02.147Z,9.27
2022-08-17T02:42:35.585Z,10.10
2022-08-17T02:45:08.006Z,9.67
2022-08-17T02:47:36.981Z,8.80
2022-08-17T02:50:08.302Z,9.37
2022-08-17T02:52:42.945Z,8.07
2022-08-17T02:55:18.729Z,8.87
2022-08-17T02:57:49.330Z,9.70
2022-08-17T03:00:23.128Z,9.73
2022-08-17T03:02:52.978Z,9.83
2022-08-17T03:05:25.940Z,8.90
2022-08-17T03:07:55.798Z,9.00
2022-08-17T03:10:26.655Z,9.77
2022-08-17T03:12:56.159Z,10.50
2022-08-17T03:15:29.631Z,9.47
2022-08-17T03:18:00.359Z,9.60
2022-08-17T03:20:32.329Z,9.53
2022-08-17T03:23:02.996Z,9.27
2022-08-17T03:25:37.338Z,10.90
2022-08-17T03:28:09.305Z,9.00
2022-08-17T03:30:41.944Z,9.87
2022-08-17T03:33:12.104Z,9.70
2022-08-17T03:35:42.115Z,9.40
2022-08-17T03:38:15.329Z,9.73
2022-08-17T03:40:57.058Z,10.20
2022-08-17T03:43:37.694Z,9.73
2022-08-17T03:46:27.592Z,9.37
2022-08-17T03:49:21.528Z,10.73
2022-08-17T03:52:07.905Z,10.37
2022-08-17T03:54:54.143Z,11.70
2022-08-17T03:57:25.806Z,10.57
2022-08-17T03:59:55.318Z,11.40
2022-08-17T04:02:28.636Z,10.07
2022-08-17T04:04:58.367Z,9.80
2022-08-17T04:07:31.941Z,10.30
2022-08-17T04:10:01.025Z,10.27
2022-08-17T04:12:46.270Z,10.37
2022-08-17T04:15:16.004Z,9.63
2022-08-17T04:17:45.880Z,10.97
2022-08-17T04:20:17.857Z,10.90
2022-08-17T04:22:59.565Z,9.77
2022-08-17T04:25:30.192Z,10.60
2022-08-17T04:28:02.726Z,10.43
2022-08-17T04:30:35.129Z,10.40
2022-08-17T04:33:08.806Z,11.13
2022-08-17T04:35:41.810Z,10.30
2022-08-17T04:38:14.574Z,10.20
2022-08-17T04:41:01.469Z,11.17
2022-08-17T04:43:38.272Z,10.63
2022-08-17T04:46:10.430Z,10.57
2022-08-17T04:48:43.602Z,11.33
2022-08-17T04:51:15.592Z,11.33
2022-08-17T04:53:53.926Z,11.63
2022-08-17T04:56:25.979Z,11.27
2022-08-17T04:58:59.864Z,11.67
2022-08-17T05:01:33.237Z,11.17
2022-08-17T05:04:33.387Z,12.27
2022-08-17T05:06:55.760Z,12.13
2022-08-17T05:09:24.750Z,13.23
2022-08-17T05:11:53.749Z,12.33
2022-08-17T05:14:33.729Z,12.37
2022-08-17T05:17:07.396Z,12.53
2022-08-17T05:19:41.177Z,11.90
2022-08-17T05:22:10.043Z,12.37
2022-08-17T05:24:53.473Z,11.93
2022-08-17T05:27:23.434Z,12.73
2022-08-17T05:29:54.106Z,11.37
2022-08-17T05:32:39.284Z,12.97
2022-08-17T05:35:10.285Z,13.50
2022-08-17T05:37:39.123Z,11.40
2022-08-17T05:40:09.956Z,12.37
2022-08-17T05:42:39.028Z,12.47
2022-08-17T05:45:12.657Z,12.53
2022-08-17T05:47:42.334Z,13.10
2022-08-17T05:50:19.582Z,12.87
2022-08-17T05:53:01.951Z,11.77
2022-08-17T05:55:43.007Z,13.60
2022-08-17T05:58:23.864Z,13.93
2022-08-17T06:01:03.186Z,13.53
2022-08-17T06:03:49.700Z,14.20
2022-08-17T06:06:36.828Z,12.23
2022-08-17T06:09:33.589Z,13.47
2022-08-17T06:12:21.533Z,13.07
2022-08-17T06:15:10.896Z,12.03
2022-08-17T06:17:42.571Z,12.70
2022-08-17T06:20:16.300Z,12.20
2022-08-17T06:22:49.827Z,13.07
2022-08-17T06:25:24.891Z,13.13
2022-08-17T06:27:59.917Z,12.00
2022-08-17T06:30:59.676Z,12.67
2022-08-17T06:33:27.744Z,12.33
2022-08-17T06:36:09.267Z,11.13
2022-08-17T06:38:51.264Z,13.17
2022-08-17T06:41:26.991Z,11.63
2022-08-17T06:44:11.674Z,12.60
2022-08-17T06:47:37.717Z,12.33
2022-08-17T06:55:17.765Z,11.90
2022-08-17T06:58:05.743Z,11.53
2022-08-17T07:00:43.539Z,12.57
2022-08-17T07:03:21.038Z,10.57
2022-08-17T07:05:55.479Z,12.10
2022-08-17T07:08:35.333Z,12.20
2022-08-17T07:11:13.058Z,12.30
2022-08-17T07:13:49.170Z,11.37
2022-08-17T07:16:27.477Z,12.20
2022-08-17T07:18:59.009Z,10.40
2022-08-17T07:21:43.034Z,11.77
2022-08-17T07:24:37.369Z,12.93
2022-08-17T07:27:16.998Z,12.20
2022-08-17T07:29:54.294Z,11.40
2022-08-17T07:32:28.124Z,10.77
2022-08-17T07:35:15.973Z,11.10
2022-08-17T07:37:50.864Z,14.10
2022-08-17T07:40:34.747Z,13.80
2022-08-17T07:43:25.072Z,10.20
2022-08-17T07:46:34.330Z,11.90
2022-08-17T07:49:22.426Z,11.60
2022-08-17T07:52:48.062Z,12.27
2022-08-17T07:54:56.108Z,11.93
2022-08-17T07:57:38.093Z,11.13
2022-08-17T08:00:24.387Z,11.00
2022-08-17T08:03:17.420Z,12.23
2022-08-17T08:05:56.029Z,11.83
2022-08-17T08:08:32.873Z,11.73
2022-08-17T08:11:11.074Z,10.83
2022-08-17T08:13:45.527Z,11.43
2022-08-17T08:16:29.335Z,11.20
2022-08-17T08:19:01.130Z,14.93
2022-08-17T08:25:07.940Z,12.63
2022-08-17T08:27:48.764Z,11.00
2022-08-17T08:30:21.516Z,10.47
2022-08-17T08:33:17.201Z,11.57
2022-08-17T08:35:54.445Z,11.57
2022-08-17T08:38:39.939Z,12.20
2022-08-17T08:41:34.249Z,12.73
2022-08-17T08:45:00.473Z,11.33
2022-08-17T08:47:45.702Z,12.40
2022-08-17T08:50:37.445Z,12.17
2022-08-17T08:53:31.198Z,10.77
2022-08-17T08:56:06.691Z,9.67
2022-08-17T08:58:50.686Z,10.33
2022-08-17T09:01:29.502Z,10.17
2022-08-17T09:04:25.146Z,10.77
2022-08-17T09:07:10.072Z,10.27
2022-08-17T09:09:56.150Z,9.87
2022-08-17T09:12:40.987Z,10.03
2022-08-17T09:15:18.479Z,9.80
2022-08-17T09:18:21.430Z,10.03
2022-08-17T09:20:53.475Z,9.17
2022-08-17T09:23:37.469Z,10.20
2022-08-17T09:26:18.039Z,9.33
2022-08-17T09:28:52.946Z,9.20
2022-08-17T09:31:33.224Z,10.33
2022-08-17T09:34:09.208Z,8.87
2022-08-17T09:36:48.859Z,8.73
2022-08-17T09:39:29.710Z,10.10
2022-08-17T09:42:07.929Z,9.17
2022-08-17T09:44:44.346Z,12.33
2022-08-17T09:47:21.444Z,9.70
2022-08-17T09:49:56.857Z,9.60
2022-08-17T09:52:28.827Z,10.97
2022-08-17T09:55:01.549Z,8.43
2022-08-17T09:57:49.372Z,9.53
2022-08-17T10:00:25.566Z,8.10
2022-08-17T10:03:26.178Z,8.50
2022-08-17T10:06:02.650Z,9.17
2022-08-17T10:08:45.817Z,8.80
2022-08-17T10:11:52.771Z,8.50
2022-08-17T10:14:37.502Z,7.73
2022-08-17T10:17:20.475Z,8.80
2022-08-17T10:19:59.839Z,7.97
2022-08-17T10:22:55.682Z,7.73
2022-08-17T10:26:00.055Z,8.20
2022-08-17T10:28:38.385Z,7.93
2022-08-17T10:31:33.757Z,8.00
2022-08-17T10:34:41.147Z,8.80
2022-08-17T10:37:38.630Z,6.90
2022-08-17T10:40:26.423Z,8.47
2022-08-17T10:43:01.635Z,8.13
2022-08-17T10:45:45.034Z,7.83
2022-08-17T10:48:33.440Z,7.83
2022-08-17T10:51:08.750Z,7.70
2022-08-17T10:54:02.063Z,8.23
2022-08-17T10:56:51.497Z,7.60
2022-08-17T10:59:54.138Z,7.70
2022-08-17T11:02:31.596Z,7.70
2022-08-17T11:05:30.527Z,8.30
2022-08-17T11:08:44.138Z,7.00
2022-08-17T11:11:43.477Z,6.50
2022-08-17T11:14:30.920Z,6.73
2022-08-17T11:17:17.219Z,7.00
2022-08-17T11:20:35.040Z,8.17
2022-08-17T11:23:35.061Z,7.80
2022-08-17T11:26:08.272Z,8.57
2022-08-17T11:28:52.777Z,7.50
2022-08-17T11:31:38.522Z,7.07
2022-08-17T11:34:19.818Z,6.97
2022-08-17T11:37:05.187Z,6.90
2022-08-17T11:40:35.945Z,7.10
2022-08-17T11:43:45.726Z,7.30
2022-08-17T11:47:05.674Z,6.70
2022-08-17T11:50:15.272Z,6.97
2022-08-17T11:52:48.973Z,6.73
2022-08-17T11:56:04.996Z,6.30
2022-08-17T11:58:41.407Z,6.43
2022-08-17T12:01:16.006Z,6.30
2022-08-17T12:03:53.947Z,6.03
2022-08-17T12:06:43.097Z,7.33
2022-08-17T12:09:19.623Z,6.60
2022-08-17T12:12:12.763Z,6.20
2022-08-17T12:17:42.608Z,7.40
2022-08-17T12:20:23.326Z,9.90
2022-08-17T12:23:04.318Z,6.20
2022-08-17T12:25:40.354Z,5.47
2022-08-17T12:28:23.913Z,6.43
2022-08-17T12:30:54.376Z,5.70
2022-08-17T12:33:28.852Z,5.57
2022-08-17T12:36:03.189Z,4.97
2022-08-17T12:38:36.191Z,4.87
2022-08-17T12:41:23.510Z,5.30
2022-08-17T12:44:02.085Z,4.93
2022-08-17T12:46:35.990Z,5.20
2022-08-17T12:49:26.538Z,4.70
2022-08-17T12:52:07.593Z,6.53
2022-08-17T12:54:47.184Z,5.50
2022-08-17T12:57:26.243Z,5.87
2022-08-17T12:59:59.895Z,5.13
2022-08-17T13:02:41.921Z,5.17
2022-08-17T13:05:23.346Z,6.20
2022-08-17T13:07:55.161Z,6.10
2022-08-17T13:10:33.141Z,6.33
2022-08-17T13:13:06.133Z,5.73
2022-08-17T13:15:44.518Z,5.87
2022-08-17T13:18:39.599Z,5.70
2022-08-17T13:21:22.166Z,6.40
2022-08-17T13:24:04.414Z,6.90
2022-08-17T13:26:37.133Z,6.27
2022-08-17T13:29:24.153Z,5.53
2022-08-17T13:31:56.718Z,5.80
2022-08-17T13:34:59.614Z,5.73
2022-08-17T13:37:33.718Z,5.10
2022-08-17T13:40:27.765Z,6.87
2022-08-17T13:42:58.272Z,6.20
2022-08-17T13:45:50.804Z,6.70
2022-08-17T13:48:28.241Z,6.13
2022-08-17T13:51:33.298Z,5.90
2022-08-17T13:54:19.310Z,6.10
2022-08-17T13:56:59.568Z,6.33
2022-08-17T13:59:53.643Z,5.70
2022-08-17T14:02:28.487Z,6.50
2022-08-17T14:05:00.590Z,6.00
2022-08-17T14:07:36.221Z,7.13
2022-08-17T14:10:14.316Z,7.03
2022-08-17T14:12:46.054Z,6.60
2022-08-17T14:15:18.430Z,5.90
2022-08-17T14:17:50.414Z,6.00
2022-08-17T14:20:29.665Z,5.97
2022-08-17T14:22:58.657Z,6.47
2022-08-17T14:25:30.691Z,6.47
2022-08-17T14:28:00.103Z,6.60
2022-08-17T14:30:29.884Z,6.70
2022-08-17T14:33:02.279Z,6.10
2022-08-17T14:35:31.736Z,6.40
2022-08-17T14:38:02.133Z,5.67
2022-08-17T14:40:39.931Z,6.03
2022-08-17T14:43:08.848Z,6.40
2022-08-17T14:45:37.918Z,5.70
2022-08-17T14:48:08.694Z,5.63
2022-08-17T14:50:41.103Z,5.87
2022-08-17T14:53:12.459Z,5.43
2022-08-17T14:55:41.463Z,6.03
2022-08-17T14:58:10.781Z,5.63
2022-08-17T15:00:40.923Z,5.50
2022-08-17T15:03:12.644Z,6.73
2022-08-17T15:05:41.685Z,6.97
2022-08-17T15:08:10.658Z,6.13
2022-08-17T15:10:40.237Z,5.73
2022-08-17T15:13:22.763Z,6.20
2022-08-17T15:15:52.101Z,6.00
2022-08-17T15:18:22.783Z,5.53
2022-08-17T15:20:52.650Z,5.13
2022-08-17T15:23:24.257Z,5.30
2022-08-17T15:25:55.838Z,5.70
2022-08-17T15:28:25.195Z,5.90
2022-08-17T15:30:55.629Z,5.67
2022-08-17T15:33:30.492Z,5.17
2022-08-17T15:36:04.617Z,5.00
2022-08-17T15:38:39.165Z,5.87
2022-08-17T15:41:09.616Z,5.60
2022-08-17T15:43:38.651Z,5.80
2022-08-17T15:46:12.508Z,5.60
2022-08-17T15:48:45.093Z,5.27
2022-08-17T15:51:18.259Z,5.37
2022-08-17T15:53:51.532Z,5.13
2022-08-17T15:56:20.919Z,5.37
2022-08-17T15:58:51.176Z,5.30
2022-08-17T16:02:16.278Z,6.03
2022-08-17T16:04:29.737Z,5.67
2022-08-17T16:07:00.587Z,5.57
2022-08-17T16:09:32.890Z,6.73
2022-08-17T16:12:11.864Z,5.40
2022-08-17T16:14:41.253Z,5.67
2022-08-17T16:17:39.669Z,4.90
2022-08-17T16:20:01.041Z,4.67
2022-08-17T16:22:36.481Z,5.27
2022-08-17T16:25:09.341Z,5.40
2022-08-17T16:27:38.364Z,5.00
2022-08-17T16:30:13.678Z,5.70
2022-08-17T16:32:47.410Z,5.10
2022-08-17T16:35:18.782Z,5.93
2022-08-17T16:37:48.004Z,6.03
2022-08-17T16:40:18.739Z,5.20
2022-08-17T16:42:49.648Z,5.20
2022-08-17T16:45:22.905Z,5.07
2022-08-17T16:47:52.008Z,5.77
2022-08-17T16:50:25.013Z,5.70
2022-08-17T16:52:53.943Z,5.43
2022-08-17T16:55:23.862Z,5.27
2022-08-17T16:57:52.739Z,6.00
2022-08-17T17:00:21.791Z,5.93
2022-08-17T17:02:50.991Z,5.67
2022-08-17T17:05:40.712Z,5.77
2022-08-17T17:08:13.235Z,5.30
2022-08-17T17:10:46.841Z,5.00
2022-08-17T17:13:26.893Z,4.93
2022-08-17T17:16:00.950Z,5.00
2022-08-17T17:18:42.736Z,4.80
2022-08-17T17:21:18.080Z,5.90
2022-08-17T17:23:57.941Z,5.40
2022-08-17T17:26:45.786Z,5.40
2022-08-17T17:29:46.505Z,6.20
2022-08-17T17:32:33.597Z,5.73
2022-08-17T17:35:10.069Z,6.00
2022-08-17T17:37:44.589Z,5.83
2022-08-17T17:40:23.202Z,5.83
2022-08-17T17:42:55.795Z,5.23
2022-08-17T17:45:28.087Z,6.30
2022-08-17T17:47:57.025Z,6.37
2022-08-17T17:50:34.615Z,6.73
2022-08-17T17:53:10.718Z,6.43
2022-08-17T17:55:49.822Z,6.67
2022-08-17T17:58:37.456Z,5.97
2022-08-17T18:01:24.641Z,5.80
2022-08-17T18:04:20.416Z,6.40
2022-08-17T18:07:12.290Z,6.00
2022-08-17T18:10:19.433Z,6.10
2022-08-17T18:13:08.103Z,6.30
2022-08-17T18:15:43.458Z,6.17
2022-08-17T18:18:40.194Z,6.63
2022-08-17T18:21:17.036Z,6.77
2022-08-17T18:23:57.022Z,4.87
2022-08-17T18:26:44.751Z,6.23
2022-08-17T18:29:31.489Z,5.60
2022-08-17T18:32:34.604Z,5.43
2022-08-17T18:35:29.009Z,5.83
2022-08-17T18:38:27.159Z,5.27
2022-08-17T18:41:04.814Z,5.57
2022-08-17T18:43:52.845Z,5.60
2022-08-17T18:46:31.341Z,5.70
2022-08-17T18:49:02.783Z,5.83
2022-08-17T18:51:40.440Z,5.77
2022-08-17T18:54:22.495Z,6.03
2022-08-17T18:56:57.686Z,6.87
2022-08-17T18:59:34.916Z,5.50
2022-08-17T19:02:43.783Z,5.40
2022-08-17T19:05:30.991Z,5.13
2022-08-17T19:08:26.109Z,6.20
2022-08-17T19:11:03.160Z,6.17
2022-08-17T19:13:38.450Z,5.30
2022-08-17T19:16:15.738Z,6.30
2022-08-17T19:18:53.044Z,6.23
2022-08-17T19:21:27.669Z,5.90
2022-08-17T19:24:04.850Z,5.47
2022-08-17T19:26:54.800Z,5.63
2022-08-17T19:29:31.220Z,7.27
2022-08-17T19:32:09.824Z,5.30
2022-08-17T19:34:48.181Z,5.80
2022-08-17T19:37:33.172Z,5.37
2022-08-17T19:40:24.495Z,5.40
2022-08-17T19:43:08.154Z,6.93
2022-08-17T19:45:42.425Z,5.90
2022-08-17T19:48:20.268Z,6.20
2022-08-17T19:50:56.805Z,5.50
2022-08-17T19:54:01.675Z,6.23
2022-08-17T19:56:27.903Z,7.00
2022-08-17T19:59:02.347Z,6.13
2022-08-17T20:01:38.196Z,5.83
2022-08-17T20:04:14.727Z,5.90
2022-08-17T20:06:47.161Z,6.30
2022-08-17T20:09:22.567Z,6.97
2022-08-17T20:11:57.391Z,6.57
2022-08-17T20:14:37.600Z,6.50
2022-08-17T20:17:07.690Z,6.27
2022-08-17T20:19:52.293Z,6.10
2022-08-17T20:22:30.974Z,6.40
2022-08-17T20:25:12.431Z,5.73
2022-08-17T20:27:53.913Z,7.17
2022-08-17T20:30:39.685Z,7.00
2022-08-17T20:33:25.034Z,6.03
2022-08-17T20:36:18.780Z,6.73
2022-08-17T20:38:51.495Z,6.50
2022-08-17T20:41:22.771Z,6.20
2022-08-17T20:44:05.435Z,6.10
2022-08-17T20:47:07.054Z,6.27
2022-08-17T20:50:01.510Z,6.03
2022-08-17T20:52:56.132Z,6.00
2022-08-17T20:55:57.287Z,5.53
2022-08-17T20:58:49.497Z,5.63
2022-08-17T21:01:36.709Z,5.73
2022-08-17T21:04:14.309Z,6.83
2022-08-17T21:07:25.662Z,7.20
2022-08-17T21:10:15.206Z,6.37
2022-08-17T21:12:48.416Z,6.17
2022-08-17T21:15:32.467Z,5.93
2022-08-17T21:18:10.803Z,5.77
2022-08-17T21:20:48.427Z,8.83
2022-08-17T21:23:35.315Z,6.33
2022-08-17T21:26:24.539Z,6.17
2022-08-17T21:29:31.608Z,6.50
2022-08-17T21:32:24.555Z,6.33
2022-08-17T21:35:31.135Z,6.30
2022-08-17T21:38:05.392Z,6.10
2022-08-17T21:40:36.312Z,7.07
2022-08-17T21:43:24.280Z,5.70
2022-08-17T21:46:02.745Z,7.50
2022-08-17T21:48:36.134Z,6.17
2022-08-17T21:51:14.584Z,5.73
2022-08-17T21:53:48.444Z,5.80
2022-08-17T21:56:26.326Z,7.20
2022-08-17T21:59:01.340Z,5.13
2022-08-17T22:01:35.160Z,6.20
2022-08-17T22:04:21.402Z,6.10
2022-08-17T22:06:57.273Z,5.87
2022-08-17T22:09:31.967Z,6.47
2022-08-17T22:12:06.657Z,6.37
2022-08-17T22:14:52.217Z,6.57
2022-08-17T22:17:26.872Z,6.03
2022-08-17T22:19:59.149Z,7.20
2022-08-17T22:22:35.696Z,6.37
2022-08-17T22:25:22.199Z,8.20
2022-08-17T22:28:01.186Z,7.10
2022-08-17T22:30:39.194Z,6.37
2022-08-17T22:33:40.810Z,6.50
2022-08-17T22:36:30.499Z,6.27
2022-08-17T22:39:02.362Z,6.37
2022-08-17T22:41:43.075Z,7.00
2022-08-17T22:44:23.330Z,5.60
2022-08-17T22:47:27.101Z,6.70
2022-08-17T22:50:02.381Z,6.10
2022-08-17T22:52:58.538Z,7.47
2022-08-17T22:55:48.228Z,6.77
2022-08-17T22:58:59.089Z,6.30
2022-08-17T23:01:33.352Z,7.10
2022-08-17T23:04:07.739Z,6.53
2022-08-17T23:06:39.197Z,7.43
2022-08-17T23:09:11.402Z,7.10
2022-08-17T23:11:48.784Z,5.80
2022-08-17T23:14:21.215Z,5.70
2022-08-17T23:16:52.822Z,5.47
2022-08-17T23:19:23.758Z,6.00
2022-08-17T23:21:54.717Z,9.33
2022-08-17T23:24:27.109Z,6.80
2022-08-17T23:26:58.228Z,5.87
2022-08-17T23:29:29.613Z,6.67
2022-08-17T23:32:01.505Z,5.93
2022-08-17T23:34:32.027Z,5.80
2022-08-17T23:37:02.402Z,6.83
2022-08-17T23:39:32.034Z,7.00
2022-08-17T23:42:05.381Z,6.70
2022-08-17T23:44:38.232Z,9.40
2022-08-17T23:47:08.257Z,7.50
2022-08-17T23:49:41.425Z,7.37
2022-08-17T23:52:16.335Z,6.03
2022-08-17T23:54:47.853Z,6.60
2022-08-17T23:57:20.024Z,6.60
